createdAt,value
2022-08-20T00:00:32.158Z,73.28
2022-08-20T00:03:02.182Z,72.60
2022-08-20T00:05:32.553Z,72.60
2022-08-20T00:08:00.475Z,73.52
2022-08-20T00:10:28.624Z,73.35
2022-08-20T00:12:56.086Z,72.35
2022-08-20T00:15:28.436Z,73.03
2022-08-20T00:17:56.100Z,72.55
2022-08-20T00:20:25.912Z,72.68
2022-08-20T00:22:53.267Z,72.59
2022-08-20T00:25:20.711Z,71.25
2022-08-20T00:27:48.470Z,71.18
2022-08-20T00:30:16.040Z,72.03
2022-08-20T00:33:20.502Z,72.48
2022-08-20T00:35:50.203Z,71.01
2022-08-20T00:38:17.896Z,70.08
2022-08-20T00:40:48.657Z,71.32
2022-08-20T00:43:36.478Z,71.83
2022-08-20T00:46:12.952Z,71.20
2022-08-20T00:48:41.683Z,71.03
2022-08-20T00:51:27.262Z,70.06
2022-08-20T00:54:02.795Z,70.57
2022-08-20T00:56:31.159Z,69.59
2022-08-20T00:58:58.788Z,69.50
2022-08-20T01:01:26.206Z,70.26
2022-08-20T01:03:57.558Z,68.49
2022-08-20T01:06:25.254Z,69.88
2022-08-20T01:08:52.612Z,70.36
2022-08-20T01:11:30.362Z,74.20
2022-08-20T01:14:36.620Z,73.72
2022-08-20T01:17:07.833Z,76.52
2022-08-20T01:19:38.564Z,75.97
2022-08-20T01:22:25.936Z,75.02
2022-08-20T01:27:22.758Z,76.66
2022-08-20T01:29:51.945Z,76.64
2022-08-20T01:32:19.641Z,79.37
2022-08-20T01:34:47.026Z,78.68
2022-08-20T01:37:14.466Z,78.89
2022-08-20T01:39:42.168Z,79.35
2022-08-20T01:42:14.435Z,80.54
2022-08-20T01:44:43.058Z,80.05
2022-08-20T01:47:25.613Z,79.50
2022-08-20T01:50:06.602Z,80.72
2022-08-20T01:52:47.235Z,80.29
2022-08-20T01:55:14.914Z,78.97
2022-08-20T01:57:42.279Z,80.05
2022-08-20T02:00:20.155Z,79.64
2022-08-20T02:02:50.462Z,80.96
2022-08-20T02:05:18.547Z,78.02
2022-08-20T02:07:46.021Z,78.03
2022-08-20T02:10:14.478Z,78.61
2022-08-20T02:12:42.102Z,76.81
2022-08-20T02:15:10.532Z,75.62
2022-08-20T02:17:39.078Z,74.87
2022-08-20T02:20:12.427Z,74.84
2022-08-20T02:22:50.137Z,75.69
2022-08-20T02:25:20.405Z,75.45
2022-08-20T02:27:51.893Z,74.96
2022-08-20T02:30:27.969Z,74.17
2022-08-20T02:32:58.386Z,73.50
2022-08-20T02:35:26.029Z,73.38
2022-08-20T02:37:53.594Z,73.25
2022-08-20T02:40:27.454Z,72.87
2022-08-20T02:42:59.465Z,71.20
2022-08-20T02:45:26.947Z,72.28
2022-08-20T02:47:55.748Z,74.91
2022-08-20T02:50:23.948Z,73.44
2022-08-20T02:52:52.022Z,74.21
2022-08-20T02:55:26.929Z,72.70
2022-08-20T02:57:58.617Z,72.97
2022-08-20T03:00:27.251Z,71.30
2022-08-20T03:02:54.690Z,70.77
2022-08-20T03:05:22.372Z,70.95
2022-08-20T03:07:53.410Z,70.46
2022-08-20T03:10:29.408Z,71.70
2022-08-20T03:12:57.086Z,71.50
2022-08-20T03:15:24.588Z,70.79
2022-08-20T03:17:52.388Z,70.87
2022-08-20T03:20:23.761Z,70.28
2022-08-20T03:22:51.545Z,72.51
2022-08-20T03:25:18.996Z,72.70
2022-08-20T03:27:47.320Z,73.12
2022-08-20T03:30:22.199Z,73.54
2022-08-20T03:32:50.196Z,72.43
2022-08-20T03:35:18.109Z,72.14
2022-08-20T03:37:48.234Z,71.60
2022-08-20T03:40:22.442Z,72.83
2022-08-20T03:42:49.803Z,72.83
2022-08-20T03:45:20.492Z,72.70
2022-08-20T03:47:48.252Z,72.81
2022-08-20T03:50:23.550Z,73.23
2022-08-20T03:52:52.087Z,71.55
2022-08-20T03:55:19.505Z,74.90
2022-08-20T03:57:48.149Z,73.37
2022-08-20T04:00:16.535Z,75.98
2022-08-20T04:02:44.191Z,75.06
2022-08-20T04:05:11.561Z,75.16
2022-08-20T04:07:38.951Z,74.73
2022-08-20T04:10:09.917Z,74.12
2022-08-20T04:12:48.683Z,72.16
2022-08-20T04:15:20.835Z,73.61
2022-08-20T04:17:50.163Z,74.35
2022-08-20T04:20:22.640Z,72.02
2022-08-20T04:22:59.107Z,72.69
2022-08-20T04:25:35.784Z,73.89
2022-08-20T04:28:05.493Z,73.21
2022-08-20T04:30:33.387Z,74.19
2022-08-20T04:33:00.975Z,74.99
2022-08-20T04:35:29.313Z,74.09
2022-08-20T04:38:01.413Z,74.08
2022-08-20T04:40:47.561Z,73.92
2022-08-20T04:43:14.913Z,74.27
2022-08-20T04:45:42.754Z,73.54
2022-08-20T04:48:14.763Z,72.60
2022-08-20T04:50:44.824Z,74.67
2022-08-20T04:53:13.274Z,75.30
2022-08-20T04:55:42.842Z,72.51
2022-08-20T04:58:12.384Z,72.70
2022-08-20T05:00:39.821Z,73.27
2022-08-20T05:03:07.209Z,70.42
2022-08-20T05:05:38.207Z,69.91
2022-08-20T05:08:05.622Z,70.35
2022-08-20T05:10:44.318Z,68.62
2022-08-20T05:13:11.760Z,67.68
2022-08-20T05:15:39.168Z,67.48
2022-08-20T05:18:07.902Z,68.29
2022-08-20T05:20:40.516Z,66.42
2022-08-20T05:23:09.594Z,65.57
2022-08-20T05:25:38.194Z,65.38
2022-08-20T05:28:13.373Z,65.70
2022-08-20T05:30:41.601Z,65.67
2022-08-20T05:33:10.066Z,64.90
2022-08-20T05:35:40.767Z,66.53
2022-08-20T05:38:10.518Z,66.90
2022-08-20T05:40:38.535Z,64.86
2022-08-20T05:43:05.988Z,65.27
2022-08-20T05:45:34.085Z,64.61
2022-08-20T05:48:13.767Z,64.92
2022-08-20T05:50:42.371Z,63.39
2022-08-20T05:53:09.770Z,62.23
2022-08-20T05:55:37.497Z,61.91
2022-08-20T05:58:07.245Z,61.91
2022-08-20T06:00:34.845Z,61.07
2022-08-20T06:03:31.711Z,63.79
2022-08-20T06:06:01.490Z,63.94
2022-08-20T06:08:29.123Z,66.82
2022-08-20T06:10:56.528Z,65.44
2022-08-20T06:13:23.983Z,66.49
2022-08-20T06:15:51.667Z,66.15
2022-08-20T06:18:27.669Z,68.94
2022-08-20T06:20:56.438Z,67.99
2022-08-20T06:23:25.291Z,69.83
2022-08-20T06:25:52.893Z,67.70
2022-08-20T06:28:20.546Z,68.73
2022-08-20T06:30:47.926Z,68.12
2022-08-20T06:33:15.272Z,65.69
2022-08-20T06:35:44.648Z,63.82
2022-08-20T06:38:12.848Z,66.70
2022-08-20T06:40:40.343Z,66.13
2022-08-20T06:43:09.096Z,66.36
2022-08-20T06:45:36.518Z,66.14
2022-08-20T06:48:09.811Z,67.72
2022-08-20T06:50:47.172Z,69.54
2022-08-20T06:53:17.274Z,66.86
2022-08-20T06:55:48.834Z,66.84
2022-08-20T06:58:32.792Z,65.85
2022-08-20T07:01:09.642Z,66.08
2022-08-20T07:03:42.164Z,63.94
2022-08-20T07:06:22.010Z,64.88
2022-08-20T07:08:49.389Z,63.48
2022-08-20T07:11:16.754Z,63.64
2022-08-20T07:13:45.371Z,63.55
2022-08-20T07:16:12.821Z,64.38
2022-08-20T07:18:40.221Z,67.25
2022-08-20T07:21:07.910Z,68.61
2022-08-20T07:23:36.357Z,70.86
2022-08-20T07:26:03.992Z,71.79
2022-08-20T07:28:34.448Z,73.79
2022-08-20T07:31:20.600Z,72.14
2022-08-20T07:33:50.246Z,72.53
2022-08-20T07:36:17.941Z,72.47
2022-08-20T07:38:50.887Z,72.57
2022-08-20T07:41:18.794Z,72.47
2022-08-20T07:43:46.421Z,71.99
2022-08-20T07:46:14.997Z,72.56
2022-08-20T07:48:49.527Z,74.08
2022-08-20T07:51:18.368Z,74.86
2022-08-20T07:53:46.777Z,72.80
2022-08-20T07:56:16.200Z,72.53
2022-08-20T07:58:50.095Z,73.21
2022-08-20T08:01:26.087Z,75.05
2022-08-20T08:03:54.013Z,74.07
2022-08-20T08:06:28.321Z,73.98
2022-08-20T08:09:05.830Z,72.71
2022-08-20T08:11:34.578Z,73.75
2022-08-20T08:14:02.486Z,75.49
2022-08-20T08:16:32.612Z,76.13
2022-08-20T08:19:02.117Z,76.99
2022-08-20T08:21:30.682Z,76.58
2022-08-20T08:23:58.286Z,75.82
2022-08-20T08:26:26.377Z,75.73
2022-08-20T08:28:54.346Z,75.54
2022-08-20T08:31:21.688Z,76.09
2022-08-20T08:33:49.060Z,76.15
2022-08-20T08:36:16.801Z,75.51
2022-08-20T08:38:44.852Z,76.59
2022-08-20T08:41:31.827Z,77.50
2022-08-20T08:44:08.270Z,76.54
2022-08-20T08:46:42.916Z,78.75
2022-08-20T08:49:12.938Z,78.22
2022-08-20T08:51:58.464Z,80.71
2022-08-20T08:54:28.699Z,83.05
2022-08-20T08:56:56.200Z,82.13
2022-08-20T08:59:23.666Z,82.23
2022-08-20T09:01:56.907Z,79.61
2022-08-20T09:04:30.393Z,78.10
2022-08-20T09:06:58.782Z,79.22
2022-08-20T09:09:32.198Z,80.56
2022-08-20T09:12:20.916Z,81.84
2022-08-20T09:14:49.192Z,80.95
2022-08-20T09:17:17.770Z,82.08
2022-08-20T09:19:45.781Z,80.41
2022-08-20T09:22:16.332Z,80.55
2022-08-20T09:24:44.056Z,81.92
2022-08-20T09:27:11.526Z,79.71
2022-08-20T09:29:39.493Z,80.32
2022-08-20T09:32:18.886Z,80.23
2022-08-20T09:34:52.039Z,81.05
2022-08-20T09:37:20.346Z,80.78
2022-08-20T09:39:48.087Z,78.97
2022-08-20T09:42:18.914Z,79.49
2022-08-20T09:44:46.608Z,79.42
2022-08-20T09:47:14.087Z,78.84
2022-08-20T09:49:41.488Z,81.78
2022-08-20T09:52:11.286Z,82.15
2022-08-20T09:54:39.063Z,82.87
2022-08-20T09:57:14.220Z,84.49
2022-08-20T09:59:41.603Z,86.89
2022-08-20T10:02:09.119Z,83.92
2022-08-20T10:04:36.784Z,87.66
2022-08-20T10:07:07.646Z,87.75
2022-08-20T10:09:36.183Z,84.25
2022-08-20T10:12:04.413Z,82.43
2022-08-20T10:14:31.823Z,86.24
2022-08-20T10:17:00.110Z,86.35
2022-08-20T10:19:28.114Z,87.63
2022-08-20T10:21:55.459Z,85.31
2022-08-20T10:24:23.170Z,81.11
2022-08-20T10:26:50.824Z,77.49
2022-08-20T10:29:18.713Z,78.21
2022-08-20T10:31:46.096Z,78.68
2022-08-20T10:34:13.740Z,75.38
2022-08-20T10:36:42.097Z,75.74
2022-08-20T10:39:12.579Z,75.04
2022-08-20T10:41:40.216Z,70.52
2022-08-20T10:44:07.723Z,69.18
2022-08-20T10:46:35.086Z,66.58
2022-08-20T10:49:02.773Z,65.30
2022-08-20T10:51:32.417Z,64.90
2022-08-20T10:54:00.669Z,63.98
2022-08-20T10:56:28.401Z,63.53
2022-08-20T10:58:56.070Z,61.44
2022-08-20T11:01:31.624Z,61.12
2022-08-20T11:04:01.647Z,61.72
2022-08-20T11:06:29.049Z,60.67
2022-08-20T11:08:56.931Z,58.80
2022-08-20T11:11:24.896Z,60.21
2022-08-20T11:13:52.291Z,60.46
2022-08-20T11:16:19.656Z,60.55
2022-08-20T11:18:47.877Z,58.76
2022-08-20T11:21:15.246Z,59.29
2022-08-20T11:23:42.613Z,59.99
2022-08-20T11:26:20.856Z,58.40
2022-08-20T11:28:48.298Z,59.19
2022-08-20T11:31:15.948Z,60.51
2022-08-20T11:33:43.334Z,58.94
2022-08-20T11:36:10.700Z,59.65
2022-08-20T11:38:38.359Z,60.91
2022-08-20T11:41:05.933Z,60.58
2022-08-20T11:43:33.660Z,61.31
2022-08-20T11:46:02.700Z,62.31
2022-08-20T11:48:30.080Z,60.96
2022-08-20T11:50:57.522Z,60.11
2022-08-20T11:53:25.206Z,58.90
2022-08-20T11:55:52.756Z,59.30
2022-08-20T11:58:20.187Z,59.86
2022-08-20T12:00:47.937Z,59.93
2022-08-20T12:03:15.670Z,59.60
2022-08-20T12:05:44.880Z,62.07
2022-08-20T12:08:26.668Z,59.22
2022-08-20T12:10:59.893Z,58.64
2022-08-20T12:13:46.585Z,56.07
2022-08-20T12:16:19.346Z,58.50
2022-08-20T12:18:47.079Z,58.03
2022-08-20T12:21:14.450Z,57.00
2022-08-20T12:23:42.096Z,57.65
2022-08-20T12:26:09.500Z,55.29
2022-08-20T12:28:36.888Z,56.17
2022-08-20T12:31:05.023Z,57.49
2022-08-20T12:33:32.447Z,55.26
2022-08-20T12:35:59.844Z,53.80
2022-08-20T12:38:27.587Z,53.01
2022-08-20T12:40:54.958Z,55.49
2022-08-20T12:43:25.020Z,56.36
2022-08-20T12:45:53.050Z,55.37
2022-08-20T12:48:20.956Z,54.59
2022-08-20T12:50:50.101Z,57.24
2022-08-20T12:53:17.929Z,57.33
2022-08-20T12:55:45.915Z,57.37
2022-08-20T12:58:13.298Z,58.22
2022-08-20T13:00:44.331Z,57.90
2022-08-20T13:03:14.738Z,57.02
2022-08-20T13:05:42.476Z,58.07
2022-08-20T13:08:10.717Z,58.89
2022-08-20T13:10:45.672Z,57.71
2022-08-20T13:13:14.506Z,59.46
2022-08-20T13:15:41.878Z,57.75
2022-08-20T13:18:09.283Z,58.13
2022-08-20T13:20:37.322Z,57.64
2022-08-20T13:23:05.164Z,56.85
2022-08-20T13:25:32.821Z,56.46
2022-08-20T13:28:02.305Z,57.75
2022-08-20T13:30:29.771Z,57.35
2022-08-20T13:32:57.277Z,55.73
2022-08-20T13:35:25.043Z,56.14
2022-08-20T13:37:52.417Z,57.04
2022-08-20T13:40:19.923Z,57.21
2022-08-20T13:42:47.608Z,58.71
2022-08-20T13:45:14.956Z,58.35
2022-08-20T13:47:42.520Z,59.42
2022-08-20T13:50:16.584Z,58.48
2022-08-20T13:52:43.939Z,58.90
2022-08-20T13:55:14.107Z,57.77
2022-08-20T13:57:42.570Z,57.20
2022-08-20T14:00:16.292Z,56.18
2022-08-20T14:02:43.967Z,54.49
2022-08-20T14:05:12.081Z,54.28
2022-08-20T14:07:42.574Z,56.51
2022-08-20T14:10:16.590Z,56.04
2022-08-20T14:12:44.023Z,54.39
2022-08-20T14:15:12.064Z,54.71
2022-08-20T14:17:43.849Z,57.69
2022-08-20T14:20:13.384Z,58.16
2022-08-20T14:22:41.367Z,58.99
2022-08-20T14:25:09.536Z,58.67
2022-08-20T14:27:36.984Z,57.71
2022-08-20T14:30:06.274Z,58.20
2022-08-20T14:32:33.720Z,57.93
2022-08-20T14:35:02.192Z,58.00
2022-08-20T14:37:33.384Z,58.42
2022-08-20T14:40:01.661Z,58.51
2022-08-20T14:42:29.691Z,57.34
2022-08-20T14:44:58.641Z,58.49
2022-08-20T14:47:30.365Z,57.57
2022-08-20T14:50:03.508Z,57.02
2022-08-20T14:52:33.778Z,58.14
2022-08-20T14:55:01.414Z,59.20
2022-08-20T14:57:30.265Z,59.09
2022-08-20T14:59:57.607Z,57.82
2022-08-20T15:02:25.290Z,58.39
2022-08-20T15:04:54.128Z,58.75
2022-08-20T15:07:27.580Z,58.40
2022-08-20T15:09:55.314Z,58.78
2022-08-20T15:12:23.110Z,58.08
2022-08-20T15:14:50.810Z,59.04
2022-08-20T15:17:26.510Z,58.37
2022-08-20T15:19:53.961Z,56.69
2022-08-20T15:22:21.954Z,59.52
2022-08-20T15:24:49.470Z,58.55
2022-08-20T15:27:24.024Z,58.18
2022-08-20T15:29:51.800Z,61.74
2022-08-20T15:32:19.604Z,60.29
2022-08-20T15:34:47.385Z,59.60
2022-08-20T15:37:15.590Z,58.23
2022-08-20T15:39:43.108Z,58.80
2022-08-20T15:42:10.970Z,59.02
2022-08-20T15:44:38.401Z,60.22
2022-08-20T15:47:31.985Z,59.18
2022-08-20T15:50:13.985Z,59.70
2022-08-20T15:52:42.749Z,58.15
2022-08-20T15:55:11.622Z,57.87
2022-08-20T15:57:50.033Z,59.34
2022-08-20T16:00:26.061Z,58.96
2022-08-20T16:03:15.818Z,58.01
2022-08-20T16:06:03.726Z,58.61
2022-08-20T16:09:00.218Z,60.57
2022-08-20T16:11:53.097Z,58.04
2022-08-20T16:14:22.955Z,57.27
2022-08-20T16:17:01.493Z,57.99
2022-08-20T16:19:36.515Z,56.93
2022-08-20T16:22:04.052Z,56.38
2022-08-20T16:24:32.171Z,56.24
2022-08-20T16:27:08.605Z,56.57
2022-08-20T16:30:00.418Z,55.67
2022-08-20T16:32:31.078Z,55.19
2022-08-20T16:35:00.352Z,55.51
2022-08-20T16:37:55.880Z,53.96
2022-08-20T16:40:39.450Z,55.61
2022-08-20T16:43:07.398Z,55.21
2022-08-20T16:45:51.068Z,55.66
2022-08-20T16:48:19.180Z,55.73
2022-08-20T16:50:58.930Z,58.09
2022-08-20T16:53:26.341Z,57.91
2022-08-20T16:55:54.113Z,58.09
2022-08-20T16:58:21.684Z,56.79
2022-08-20T17:00:49.106Z,60.17
2022-08-20T17:03:33.620Z,58.03
2022-08-20T17:06:23.074Z,59.09
2022-08-20T17:08:52.164Z,59.81
2022-08-20T17:11:31.977Z,59.99
2022-08-20T17:14:07.248Z,59.83
2022-08-20T17:16:49.354Z,60.55
2022-08-20T17:19:28.739Z,59.37
2022-08-20T17:21:56.987Z,59.83
2022-08-20T17:24:27.159Z,59.32
2022-08-20T17:27:01.725Z,59.02
2022-08-20T17:29:31.407Z,60.01
2022-08-20T17:32:00.841Z,60.84
2022-08-20T17:34:32.192Z,59.99
2022-08-20T17:37:08.965Z,60.71
2022-08-20T17:39:44.500Z,60.53
2022-08-20T17:42:17.592Z,62.42
2022-08-20T17:45:08.721Z,61.68
2022-08-20T17:47:36.841Z,61.76
2022-08-20T17:50:13.365Z,61.85
2022-08-20T17:52:47.548Z,62.08
2022-08-20T17:55:14.966Z,61.99
2022-08-20T17:57:44.648Z,61.83
2022-08-20T18:00:15.559Z,62.44
2022-08-20T18:02:43.273Z,62.87
2022-08-20T18:05:19.113Z,62.52
2022-08-20T18:08:06.608Z,62.48
2022-08-20T18:10:50.873Z,63.16
2022-08-20T18:13:19.315Z,64.52
2022-08-20T18:15:53.840Z,66.04
2022-08-20T18:18:55.054Z,65.97
2022-08-20T18:21:50.242Z,64.82
2022-08-20T18:24:20.593Z,63.50
2022-08-20T18:26:58.056Z,63.29
2022-08-20T18:29:35.680Z,64.55
2022-08-20T18:32:26.739Z,65.77
2022-08-20T18:34:54.558Z,65.23
2022-08-20T18:37:25.436Z,64.22
2022-08-20T18:39:52.878Z,64.01
2022-08-20T18:42:31.992Z,64.75
2022-08-20T18:44:59.582Z,64.40
2022-08-20T18:47:33.464Z,64.58
2022-08-20T18:50:16.882Z,65.28
2022-08-20T18:52:52.470Z,66.32
2022-08-20T18:55:43.746Z,65.26
2022-08-20T18:58:13.494Z,66.50
2022-08-20T19:00:47.626Z,66.30
2022-08-20T19:03:32.156Z,67.23
2022-08-20T19:06:09.110Z,69.14
2022-08-20T19:08:42.830Z,69.26
2022-08-20T19:11:50.795Z,68.55
2022-08-20T19:14:40.242Z,70.21
2022-08-20T19:17:20.326Z,71.31
2022-08-20T19:19:58.594Z,70.98
2022-08-20T19:22:27.243Z,70.29
2022-08-20T19:24:56.704Z,70.50
2022-08-20T19:27:26.000Z,69.41
2022-08-20T19:29:56.773Z,67.42
2022-08-20T19:32:26.755Z,66.68
2022-08-20T19:34:58.826Z,67.57
2022-08-20T19:37:40.011Z,67.56
2022-08-20T19:40:28.442Z,67.02
2022-08-20T19:42:58.289Z,66.43
2022-08-20T19:45:30.950Z,66.51
2022-08-20T19:48:07.977Z,66.00
2022-08-20T19:50:57.269Z,68.56
2022-08-20T19:53:30.474Z,66.79
2022-08-20T19:56:06.699Z,67.54
2022-08-20T19:58:34.443Z,70.23
2022-08-20T20:01:02.793Z,71.69
2022-08-20T20:03:33.674Z,71.31
2022-08-20T20:06:17.100Z,71.09
2022-08-20T20:08:53.552Z,72.14
2022-08-20T20:11:23.685Z,73.07
2022-08-20T20:13:51.332Z,70.01
2022-08-20T20:16:20.208Z,69.88
2022-08-20T20:18:54.895Z,69.58
2022-08-20T20:21:51.818Z,70.74
2022-08-20T20:24:30.025Z,71.59
2022-08-20T20:26:58.712Z,73.04
2022-08-20T20:29:34.313Z,72.29
2022-08-20T20:32:02.723Z,71.78
2022-08-20T20:34:35.577Z,71.69
2022-08-20T20:37:37.929Z,71.31
2022-08-20T20:40:25.422Z,71.69
2022-08-20T20:43:12.030Z,74.52
2022-08-20T20:45:58.070Z,73.95
2022-08-20T20:48:26.641Z,74.76
2022-08-20T20:51:00.238Z,75.16
2022-08-20T20:53:47.447Z,75.11
2022-08-20T20:56:36.656Z,75.08
2022-08-20T20:59:06.786Z,75.52
2022-08-20T21:01:47.897Z,75.84
2022-08-20T21:04:21.921Z,75.96
2022-08-20T21:06:50.016Z,75.77
2022-08-20T21:09:18.722Z,77.22
2022-08-20T21:11:46.265Z,79.03
2022-08-20T21:14:13.924Z,79.94
2022-08-20T21:16:41.812Z,78.69
2022-08-20T21:19:09.944Z,78.42
2022-08-20T21:21:38.309Z,80.29
2022-08-20T21:24:06.241Z,79.78
2022-08-20T21:26:33.599Z,79.61
2022-08-20T21:29:01.142Z,79.34
2022-08-20T21:31:36.137Z,78.64
2022-08-20T21:34:03.525Z,79.23
2022-08-20T21:36:31.181Z,77.39
2022-08-20T21:38:58.565Z,76.90
2022-08-20T21:41:29.767Z,77.53
2022-08-20T21:43:59.319Z,77.32
2022-08-20T21:46:28.678Z,77.89
2022-08-20T21:48:56.236Z,76.26
2022-08-20T21:51:23.885Z,77.61
2022-08-20T21:53:52.010Z,76.97
2022-08-20T21:56:19.395Z,77.45
2022-08-20T21:58:47.495Z,76.45
2022-08-20T22:01:14.985Z,75.56
2022-08-20T22:03:42.745Z,76.69
2022-08-20T22:06:11.630Z,77.17
2022-08-20T22:08:39.122Z,76.57
2022-08-20T22:11:07.810Z,76.63
2022-08-20T22:13:35.306Z,78.68
2022-08-20T22:16:04.607Z,78.56
2022-08-20T22:18:32.407Z,78.59
2022-08-20T22:20:59.749Z,78.10
2022-08-20T22:23:27.342Z,76.45
2022-08-20T22:25:55.009Z,78.14
2022-08-20T22:28:22.420Z,78.48
2022-08-20T22:30:49.926Z,77.84
2022-08-20T22:33:20.485Z,79.92
2022-08-20T22:35:49.644Z,79.41
2022-08-20T22:38:17.042Z,80.52
2022-08-20T22:40:44.833Z,79.09
2022-08-20T22:43:12.206Z,80.47
2022-08-20T22:45:39.766Z,80.03
2022-08-20T22:48:07.570Z,79.67
2022-08-20T22:50:36.703Z,79.10
2022-08-20T22:53:04.231Z,79.90
2022-08-20T22:55:31.861Z,77.43
2022-08-20T22:57:59.314Z,80.48
2022-08-20T23:00:28.355Z,81.97
2022-08-20T23:02:57.030Z,80.24
2022-08-20T23:05:25.756Z,79.79
2022-08-20T23:07:54.483Z,79.10
2022-08-20T23:10:23.053Z,77.68
2022-08-20T23:12:50.533Z,78.74
2022-08-20T23:15:17.978Z,77.98
2022-08-20T23:17:45.705Z,78.17
2022-08-20T23:20:14.933Z,77.95
2022-08-20T23:22:42.475Z,79.35
2022-08-20T23:25:10.584Z,77.93
2022-08-20T23:28:03.493Z,77.85
2022-08-20T23:30:32.084Z,78.68
2022-08-20T23:33:01.596Z,79.39
2022-08-20T23:35:29.846Z,77.52
2022-08-20T23:38:00.674Z,76.45
2022-08-20T23:40:28.967Z,80.14
2022-08-20T23:42:56.667Z,77.85
2022-08-20T23:45:24.618Z,77.07
2022-08-20T23:47:51.990Z,79.92
2022-08-20T23:50:21.681Z,78.11
2022-08-20T23:52:52.708Z,77.20
2022-08-20T23:55:20.640Z,78.05
2022-08-20T23:57:47.999Z,79.64
